sensor_id;sensor_type;location;lat;lon;timestamp;P1;durP1;ratioP1;P2;durP2;ratioP2
77828;SDS011;67019;51.034;3.728;2024-01-25T00:01:55;63.08;;;11.93;;
77828;SDS011;67019;51.034;3.728;2024-01-25T00:04:23;57.93;;;11.68;;
77828;SDS011;67019;51.034;3.728;2024-01-25T00:06:50;55.75;;;9.23;;
77828;SDS011;67019;51.034;3.728;2024-01-25T00:09:18;61.90;;;10.70;;
77828;SDS011;67019;51.034;3.728;2024-01-25T00:11:45;58.52;;;10.43;;
77828;SDS011;67019;51.034;3.728;2024-01-25T00:14:13;72.32;;;10.90;;
77828;SDS011;67019;51.034;3.728;2024-01-25T00:16:46;56.28;;;10.58;;
77828;SDS011;67019;51.034;3.728;2024-01-25T00:19:10;58.13;;;12.95;;
77828;SDS011;67019;51.034;3.728;2024-01-25T00:21:43;65.52;;;11.25;;
77828;SDS011;67019;51.034;3.728;2024-01-25T00:24:11;74.35;;;11.53;;
77828;SDS011;67019;51.034;3.728;2024-01-25T00:26:39;62.60;;;8.80;;
77828;SDS011;67019;51.034;3.728;2024-01-25T00:29:07;63.40;;;9.25;;
77828;SDS011;67019;51.034;3.728;2024-01-25T00:31:34;60.50;;;9.15;;
77828;SDS011;67019;51.034;3.728;2024-01-25T00:34:02;54.67;;;9.60;;
77828;SDS011;67019;51.034;3.728;2024-01-25T00:36:30;63.13;;;10.28;;
77828;SDS011;67019;51.034;3.728;2024-01-25T00:38:58;53.73;;;7.37;;
77828;SDS011;67019;51.034;3.728;2024-01-25T00:41:25;52.23;;;11.78;;
77828;SDS011;67019;51.034;3.728;2024-01-25T00:43:56;52.38;;;10.43;;
77828;SDS011;67019;51.034;3.728;2024-01-25T00:46:23;54.40;;;8.25;;
77828;SDS011;67019;51.034;3.728;2024-01-25T00:48:51;45.95;;;9.28;;
77828;SDS011;67019;51.034;3.728;2024-01-25T00:51:21;61.68;;;10.32;;
77828;SDS011;67019;51.034;3.728;2024-01-25T00:53:52;72.85;;;10.93;;
77828;SDS011;67019;51.034;3.728;2024-01-25T00:56:19;60.33;;;8.93;;
77828;SDS011;67019;51.034;3.728;2024-01-25T00:58:47;52.50;;;8.55;;
77828;SDS011;67019;51.034;3.728;2024-01-25T01:01:15;57.75;;;9.33;;
77828;SDS011;67019;51.034;3.728;2024-01-25T01:03:45;57.58;;;8.75;;
77828;SDS011;67019;51.034;3.728;2024-01-25T01:06:14;39.05;;;8.50;;
77828;SDS011;67019;51.034;3.728;2024-01-25T01:08:42;70.28;;;11.18;;
77828;SDS011;67019;51.034;3.728;2024-01-25T01:11:09;74.10;;;10.53;;
77828;SDS011;67019;51.034;3.728;2024-01-25T01:13:37;53.50;;;10.03;;
77828;SDS011;67019;51.034;3.728;2024-01-25T01:16:05;62.10;;;9.70;;
77828;SDS011;67019;51.034;3.728;2024-01-25T01:18:32;52.85;;;8.35;;
77828;SDS011;67019;51.034;3.728;2024-01-25T01:21:00;69.07;;;10.32;;
77828;SDS011;67019;51.034;3.728;2024-01-25T01:23:27;53.17;;;9.38;;
77828;SDS011;67019;51.034;3.728;2024-01-25T01:25:55;60.12;;;8.20;;
77828;SDS011;67019;51.034;3.728;2024-01-25T01:28:22;57.60;;;7.65;;
77828;SDS011;67019;51.034;3.728;2024-01-25T01:30:50;62.08;;;8.90;;
77828;SDS011;67019;51.034;3.728;2024-01-25T01:33:18;60.25;;;7.35;;
77828;SDS011;67019;51.034;3.728;2024-01-25T01:35:45;63.78;;;9.95;;
77828;SDS011;67019;51.034;3.728;2024-01-25T01:38:13;52.30;;;7.80;;
77828;SDS011;67019;51.034;3.728;2024-01-25T01:40:40;52.70;;;9.55;;
77828;SDS011;67019;51.034;3.728;2024-01-25T01:43:08;57.08;;;9.98;;
77828;SDS011;67019;51.034;3.728;2024-01-25T01:48:05;43.15;;;7.97;;
77828;SDS011;67019;51.034;3.728;2024-01-25T01:50:33;50.38;;;8.73;;
77828;SDS011;67019;51.034;3.728;2024-01-25T01:53:00;49.75;;;9.43;;
77828;SDS011;67019;51.034;3.728;2024-01-25T01:55:28;41.30;;;10.00;;
77828;SDS011;67019;51.034;3.728;2024-01-25T01:57:57;66.67;;;10.48;;
77828;SDS011;67019;51.034;3.728;2024-01-25T02:00:26;52.05;;;8.40;;
77828;SDS011;67019;51.034;3.728;2024-01-25T02:02:55;44.53;;;8.68;;
77828;SDS011;67019;51.034;3.728;2024-01-25T02:05:23;49.18;;;11.30;;
77828;SDS011;67019;51.034;3.728;2024-01-25T02:07:51;52.50;;;8.60;;
77828;SDS011;67019;51.034;3.728;2024-01-25T02:10:20;52.75;;;7.90;;
77828;SDS011;67019;51.034;3.728;2024-01-25T02:12:47;63.52;;;10.05;;
77828;SDS011;67019;51.034;3.728;2024-01-25T02:15:15;45.38;;;7.97;;
77828;SDS011;67019;51.034;3.728;2024-01-25T02:17:42;59.83;;;8.50;;
77828;SDS011;67019;51.034;3.728;2024-01-25T02:20:10;49.98;;;7.33;;
77828;SDS011;67019;51.034;3.728;2024-01-25T02:22:38;60.65;;;10.03;;
77828;SDS011;67019;51.034;3.728;2024-01-25T02:25:05;53.78;;;8.28;;
77828;SDS011;67019;51.034;3.728;2024-01-25T02:27:33;78.80;;;11.50;;
77828;SDS011;67019;51.034;3.728;2024-01-25T02:30:02;56.80;;;8.60;;
77828;SDS011;67019;51.034;3.728;2024-01-25T02:32:30;56.92;;;10.40;;
77828;SDS011;67019;51.034;3.728;2024-01-25T02:34:58;50.30;;;9.03;;
77828;SDS011;67019;51.034;3.728;2024-01-25T02:37:25;76.92;;;14.20;;
77828;SDS011;67019;51.034;3.728;2024-01-25T02:39:53;58.92;;;12.40;;
77828;SDS011;67019;51.034;3.728;2024-01-25T02:42:21;69.42;;;12.88;;
77828;SDS011;67019;51.034;3.728;2024-01-25T02:44:48;59.85;;;10.28;;
77828;SDS011;67019;51.034;3.728;2024-01-25T02:47:16;52.23;;;10.00;;
77828;SDS011;67019;51.034;3.728;2024-01-25T02:49:44;77.20;;;14.23;;
77828;SDS011;67019;51.034;3.728;2024-01-25T02:52:12;68.12;;;10.82;;
77828;SDS011;67019;51.034;3.728;2024-01-25T02:54:39;51.40;;;9.10;;
77828;SDS011;67019;51.034;3.728;2024-01-25T02:57:07;75.60;;;10.65;;
77828;SDS011;67019;51.034;3.728;2024-01-25T02:59:34;61.13;;;9.35;;
77828;SDS011;67019;51.034;3.728;2024-01-25T03:02:02;71.53;;;14.55;;
77828;SDS011;67019;51.034;3.728;2024-01-25T03:04:30;68.80;;;10.50;;
77828;SDS011;67019;51.034;3.728;2024-01-25T03:06:57;62.33;;;9.60;;
77828;SDS011;67019;51.034;3.728;2024-01-25T03:09:25;60.12;;;11.00;;
77828;SDS011;67019;51.034;3.728;2024-01-25T03:11:53;63.23;;;14.55;;
77828;SDS011;67019;51.034;3.728;2024-01-25T03:14:21;57.95;;;7.80;;
77828;SDS011;67019;51.034;3.728;2024-01-25T03:16:48;50.38;;;9.83;;
77828;SDS011;67019;51.034;3.728;2024-01-25T03:19:16;44.48;;;10.93;;
77828;SDS011;67019;51.034;3.728;2024-01-25T03:21:44;61.68;;;10.43;;
77828;SDS011;67019;51.034;3.728;2024-01-25T03:24:12;51.58;;;11.83;;
77828;SDS011;67019;51.034;3.728;2024-01-25T03:26:39;57.58;;;8.23;;
77828;SDS011;67019;51.034;3.728;2024-01-25T03:29:07;61.55;;;10.05;;
77828;SDS011;67019;51.034;3.728;2024-01-25T03:31:35;61.30;;;11.73;;
77828;SDS011;67019;51.034;3.728;2024-01-25T03:34:03;53.30;;;8.15;;
77828;SDS011;67019;51.034;3.728;2024-01-25T03:36:31;61.13;;;10.60;;
77828;SDS011;67019;51.034;3.728;2024-01-25T03:38:59;57.48;;;10.55;;
77828;SDS011;67019;51.034;3.728;2024-01-25T03:41:26;41.77;;;8.48;;
77828;SDS011;67019;51.034;3.728;2024-01-25T03:43:54;54.25;;;8.55;;
77828;SDS011;67019;51.034;3.728;2024-01-25T03:46:22;50.95;;;8.80;;
77828;SDS011;67019;51.034;3.728;2024-01-25T03:48:49;45.48;;;10.48;;
77828;SDS011;67019;51.034;3.728;2024-01-25T03:51:17;74.60;;;11.55;;
77828;SDS011;67019;51.034;3.728;2024-01-25T03:53:45;61.35;;;13.60;;
77828;SDS011;67019;51.034;3.728;2024-01-25T03:56:13;63.38;;;10.35;;
77828;SDS011;67019;51.034;3.728;2024-01-25T03:58:43;62.13;;;9.08;;
77828;SDS011;67019;51.034;3.728;2024-01-25T04:01:12;55.15;;;9.15;;
77828;SDS011;67019;51.034;3.728;2024-01-25T04:03:39;66.70;;;10.18;;
77828;SDS011;67019;51.034;3.728;2024-01-25T04:06:07;81.22;;;13.40;;
77828;SDS011;67019;51.034;3.728;2024-01-25T04:08:35;70.45;;;13.53;;
77828;SDS011;67019;51.034;3.728;2024-01-25T04:11:02;83.85;;;11.63;;
77828;SDS011;67019;51.034;3.728;2024-01-25T04:13:30;65.72;;;9.93;;
77828;SDS011;67019;51.034;3.728;2024-01-25T04:15:58;48.15;;;8.40;;
77828;SDS011;67019;51.034;3.728;2024-01-25T04:18:26;70.67;;;11.85;;
77828;SDS011;67019;51.034;3.728;2024-01-25T04:20:53;46.10;;;12.70;;
77828;SDS011;67019;51.034;3.728;2024-01-25T04:23:21;64.75;;;9.60;;
77828;SDS011;67019;51.034;3.728;2024-01-25T04:25:48;59.90;;;9.65;;
77828;SDS011;67019;51.034;3.728;2024-01-25T04:28:16;63.00;;;9.65;;
77828;SDS011;67019;51.034;3.728;2024-01-25T04:30:43;56.90;;;9.25;;
77828;SDS011;67019;51.034;3.728;2024-01-25T04:33:11;54.13;;;11.28;;
77828;SDS011;67019;51.034;3.728;2024-01-25T04:35:38;46.73;;;9.55;;
77828;SDS011;67019;51.034;3.728;2024-01-25T04:38:06;60.23;;;10.05;;
77828;SDS011;67019;51.034;3.728;2024-01-25T04:40:33;55.48;;;10.93;;
77828;SDS011;67019;51.034;3.728;2024-01-25T04:43:01;68.40;;;12.82;;
77828;SDS011;67019;51.034;3.728;2024-01-25T04:45:28;51.23;;;10.65;;
77828;SDS011;67019;51.034;3.728;2024-01-25T04:47:56;64.58;;;12.78;;
77828;SDS011;67019;51.034;3.728;2024-01-25T04:50:23;43.63;;;10.03;;
77828;SDS011;67019;51.034;3.728;2024-01-25T04:52:51;51.55;;;9.75;;
77828;SDS011;67019;51.034;3.728;2024-01-25T04:55:18;60.33;;;10.85;;
77828;SDS011;67019;51.034;3.728;2024-01-25T04:57:46;56.42;;;10.13;;
77828;SDS011;67019;51.034;3.728;2024-01-25T05:00:15;63.68;;;13.20;;
77828;SDS011;67019;51.034;3.728;2024-01-25T05:02:43;63.00;;;12.18;;
77828;SDS011;67019;51.034;3.728;2024-01-25T05:05:11;59.13;;;10.78;;
77828;SDS011;67019;51.034;3.728;2024-01-25T05:07:38;56.58;;;10.05;;
77828;SDS011;67019;51.034;3.728;2024-01-25T05:10:06;58.75;;;10.50;;
77828;SDS011;67019;51.034;3.728;2024-01-25T05:12:34;67.35;;;12.15;;
77828;SDS011;67019;51.034;3.728;2024-01-25T05:15:02;68.83;;;15.20;;
77828;SDS011;67019;51.034;3.728;2024-01-25T05:17:29;65.25;;;11.70;;
77828;SDS011;67019;51.034;3.728;2024-01-25T05:19:57;47.65;;;9.05;;
77828;SDS011;67019;51.034;3.728;2024-01-25T05:22:24;55.78;;;12.10;;
77828;SDS011;67019;51.034;3.728;2024-01-25T05:24:52;60.70;;;10.72;;
77828;SDS011;67019;51.034;3.728;2024-01-25T05:27:20;74.17;;;12.43;;
77828;SDS011;67019;51.034;3.728;2024-01-25T05:29:47;48.00;;;10.30;;
77828;SDS011;67019;51.034;3.728;2024-01-25T05:32:15;53.70;;;9.90;;
77828;SDS011;67019;51.034;3.728;2024-01-25T05:34:42;55.60;;;10.85;;
77828;SDS011;67019;51.034;3.728;2024-01-25T05:37:10;63.90;;;11.55;;
77828;SDS011;67019;51.034;3.728;2024-01-25T05:39:39;55.60;;;10.05;;
77828;SDS011;67019;51.034;3.728;2024-01-25T05:42:06;52.60;;;9.43;;
77828;SDS011;67019;51.034;3.728;2024-01-25T05:44:34;55.60;;;10.98;;
77828;SDS011;67019;51.034;3.728;2024-01-25T05:47:02;55.85;;;10.43;;
77828;SDS011;67019;51.034;3.728;2024-01-25T05:49:29;60.10;;;13.30;;
77828;SDS011;67019;51.034;3.728;2024-01-25T05:51:57;52.17;;;11.73;;
77828;SDS011;67019;51.034;3.728;2024-01-25T05:54:24;53.65;;;11.08;;
77828;SDS011;67019;51.034;3.728;2024-01-25T05:56:52;57.83;;;12.00;;
77828;SDS011;67019;51.034;3.728;2024-01-25T05:59:19;63.30;;;12.43;;
77828;SDS011;67019;51.034;3.728;2024-01-25T06:01:47;68.92;;;12.15;;
77828;SDS011;67019;51.034;3.728;2024-01-25T06:04:15;69.87;;;12.58;;
77828;SDS011;67019;51.034;3.728;2024-01-25T06:06:42;78.75;;;12.18;;
77828;SDS011;67019;51.034;3.728;2024-01-25T06:09:10;64.95;;;13.88;;
77828;SDS011;67019;51.034;3.728;2024-01-25T06:11:38;68.70;;;11.83;;
77828;SDS011;67019;51.034;3.728;2024-01-25T06:14:05;60.00;;;13.72;;
77828;SDS011;67019;51.034;3.728;2024-01-25T06:16:33;53.75;;;11.50;;
77828;SDS011;67019;51.034;3.728;2024-01-25T06:19:02;60.17;;;11.97;;
77828;SDS011;67019;51.034;3.728;2024-01-25T06:21:31;74.07;;;15.03;;
77828;SDS011;67019;51.034;3.728;2024-01-25T06:24:00;68.57;;;16.12;;
77828;SDS011;67019;51.034;3.728;2024-01-25T06:26:33;59.40;;;10.13;;
77828;SDS011;67019;51.034;3.728;2024-01-25T06:29:00;68.30;;;13.83;;
77828;SDS011;67019;51.034;3.728;2024-01-25T06:31:28;53.80;;;12.55;;
77828;SDS011;67019;51.034;3.728;2024-01-25T06:33:55;56.15;;;13.05;;
77828;SDS011;67019;51.034;3.728;2024-01-25T06:36:23;58.60;;;13.90;;
77828;SDS011;67019;51.034;3.728;2024-01-25T06:38:50;79.17;;;13.70;;
77828;SDS011;67019;51.034;3.728;2024-01-25T06:41:18;79.70;;;15.28;;
77828;SDS011;67019;51.034;3.728;2024-01-25T06:43:46;91.70;;;13.78;;
77828;SDS011;67019;51.034;3.728;2024-01-25T06:46:13;65.87;;;15.75;;
77828;SDS011;67019;51.034;3.728;2024-01-25T06:48:41;66.50;;;16.35;;
77828;SDS011;67019;51.034;3.728;2024-01-25T06:51:08;71.40;;;14.25;;
77828;SDS011;67019;51.034;3.728;2024-01-25T06:53:36;53.52;;;12.75;;
77828;SDS011;67019;51.034;3.728;2024-01-25T06:56:03;70.12;;;14.18;;
77828;SDS011;67019;51.034;3.728;2024-01-25T06:58:32;63.50;;;16.23;;
77828;SDS011;67019;51.034;3.728;2024-01-25T07:01:00;68.67;;;15.05;;
77828;SDS011;67019;51.034;3.728;2024-01-25T07:03:27;58.17;;;13.08;;
77828;SDS011;67019;51.034;3.728;2024-01-25T07:05:55;75.03;;;15.83;;
77828;SDS011;67019;51.034;3.728;2024-01-25T07:08:22;56.13;;;13.93;;
77828;SDS011;67019;51.034;3.728;2024-01-25T07:10:50;63.50;;;13.38;;
77828;SDS011;67019;51.034;3.728;2024-01-25T07:13:18;69.82;;;14.55;;
77828;SDS011;67019;51.034;3.728;2024-01-25T07:15:46;72.00;;;16.42;;
77828;SDS011;67019;51.034;3.728;2024-01-25T07:18:15;60.95;;;13.20;;
77828;SDS011;67019;51.034;3.728;2024-01-25T07:20:43;75.12;;;15.70;;
77828;SDS011;67019;51.034;3.728;2024-01-25T07:23:10;62.88;;;13.53;;
77828;SDS011;67019;51.034;3.728;2024-01-25T07:25:38;70.55;;;15.48;;
77828;SDS011;67019;51.034;3.728;2024-01-25T07:28:05;82.75;;;15.58;;
77828;SDS011;67019;51.034;3.728;2024-01-25T07:30:33;65.80;;;15.68;;
77828;SDS011;67019;51.034;3.728;2024-01-25T07:33:00;73.78;;;14.53;;
77828;SDS011;67019;51.034;3.728;2024-01-25T07:35:28;109.15;;;16.23;;
77828;SDS011;67019;51.034;3.728;2024-01-25T07:37:56;101.12;;;18.30;;
77828;SDS011;67019;51.034;3.728;2024-01-25T07:40:23;142.50;;;16.87;;
77828;SDS011;67019;51.034;3.728;2024-01-25T07:42:51;158.12;;;19.70;;
77828;SDS011;67019;51.034;3.728;2024-01-25T07:45:18;98.90;;;16.95;;
77828;SDS011;67019;51.034;3.728;2024-01-25T07:47:46;127.02;;;16.20;;
77828;SDS011;67019;51.034;3.728;2024-01-25T07:50:13;94.70;;;17.65;;
77828;SDS011;67019;51.034;3.728;2024-01-25T07:52:41;86.63;;;14.25;;
77828;SDS011;67019;51.034;3.728;2024-01-25T07:55:09;136.60;;;17.87;;
77828;SDS011;67019;51.034;3.728;2024-01-25T07:57:37;79.92;;;16.60;;
77828;SDS011;67019;51.034;3.728;2024-01-25T08:00:04;159.05;;;18.25;;
77828;SDS011;67019;51.034;3.728;2024-01-25T08:02:35;115.88;;;16.23;;
77828;SDS011;67019;51.034;3.728;2024-01-25T08:05:04;88.35;;;14.45;;
77828;SDS011;67019;51.034;3.728;2024-01-25T08:07:32;74.87;;;15.28;;
77828;SDS011;67019;51.034;3.728;2024-01-25T08:09:59;99.72;;;16.17;;
77828;SDS011;67019;51.034;3.728;2024-01-25T08:12:27;92.00;;;15.70;;
77828;SDS011;67019;51.034;3.728;2024-01-25T08:14:54;108.92;;;16.10;;
77828;SDS011;67019;51.034;3.728;2024-01-25T08:17:22;77.25;;;17.17;;
77828;SDS011;67019;51.034;3.728;2024-01-25T08:19:50;75.92;;;16.45;;
77828;SDS011;67019;51.034;3.728;2024-01-25T08:22:17;48.52;;;14.43;;
77828;SDS011;67019;51.034;3.728;2024-01-25T08:24:45;61.98;;;13.00;;
77828;SDS011;67019;51.034;3.728;2024-01-25T08:27:12;83.62;;;14.15;;
77828;SDS011;67019;51.034;3.728;2024-01-25T08:29:40;71.87;;;14.10;;
77828;SDS011;67019;51.034;3.728;2024-01-25T08:32:07;122.25;;;16.32;;
77828;SDS011;67019;51.034;3.728;2024-01-25T08:34:35;80.15;;;16.40;;
77828;SDS011;67019;51.034;3.728;2024-01-25T08:37:03;64.87;;;17.30;;
77828;SDS011;67019;51.034;3.728;2024-01-25T08:39:30;78.67;;;15.23;;
77828;SDS011;67019;51.034;3.728;2024-01-25T08:41:58;88.92;;;22.22;;
77828;SDS011;67019;51.034;3.728;2024-01-25T08:44:27;64.42;;;14.70;;
77828;SDS011;67019;51.034;3.728;2024-01-25T08:46:55;83.17;;;16.27;;
77828;SDS011;67019;51.034;3.728;2024-01-25T08:49:22;74.90;;;14.83;;
77828;SDS011;67019;51.034;3.728;2024-01-25T08:51:50;82.35;;;18.52;;
77828;SDS011;67019;51.034;3.728;2024-01-25T08:54:17;87.92;;;17.52;;
77828;SDS011;67019;51.034;3.728;2024-01-25T08:56:45;78.07;;;14.80;;
77828;SDS011;67019;51.034;3.728;2024-01-25T08:59:12;58.92;;;14.25;;
77828;SDS011;67019;51.034;3.728;2024-01-25T09:01:40;56.53;;;14.85;;
77828;SDS011;67019;51.034;3.728;2024-01-25T09:04:09;87.85;;;16.35;;
77828;SDS011;67019;51.034;3.728;2024-01-25T09:06:36;64.53;;;17.77;;
77828;SDS011;67019;51.034;3.728;2024-01-25T09:09:04;83.03;;;17.27;;
77828;SDS011;67019;51.034;3.728;2024-01-25T09:11:31;52.25;;;14.95;;
77828;SDS011;67019;51.034;3.728;2024-01-25T09:13:59;50.95;;;15.83;;
77828;SDS011;67019;51.034;3.728;2024-01-25T09:16:26;49.03;;;15.00;;
77828;SDS011;67019;51.034;3.728;2024-01-25T09:18:54;45.00;;;14.73;;
77828;SDS011;67019;51.034;3.728;2024-01-25T09:21:22;44.23;;;15.55;;
77828;SDS011;67019;51.034;3.728;2024-01-25T09:23:49;41.02;;;15.13;;
77828;SDS011;67019;51.034;3.728;2024-01-25T09:26:17;41.85;;;16.52;;
77828;SDS011;67019;51.034;3.728;2024-01-25T09:28:44;44.45;;;17.15;;
77828;SDS011;67019;51.034;3.728;2024-01-25T09:31:12;47.20;;;18.00;;
77828;SDS011;67019;51.034;3.728;2024-01-25T09:33:39;39.30;;;15.98;;
77828;SDS011;67019;51.034;3.728;2024-01-25T09:36:07;47.17;;;18.52;;
77828;SDS011;67019;51.034;3.728;2024-01-25T09:38:34;51.13;;;22.02;;
77828;SDS011;67019;51.034;3.728;2024-01-25T09:41:02;42.35;;;18.35;;
77828;SDS011;67019;51.034;3.728;2024-01-25T09:43:30;37.88;;;18.87;;
77828;SDS011;67019;51.034;3.728;2024-01-25T09:45:58;41.83;;;16.75;;
77828;SDS011;67019;51.034;3.728;2024-01-25T09:48:27;37.45;;;14.75;;
77828;SDS011;67019;51.034;3.728;2024-01-25T09:50:55;31.73;;;15.95;;
77828;SDS011;67019;51.034;3.728;2024-01-25T09:53:23;32.95;;;13.95;;
77828;SDS011;67019;51.034;3.728;2024-01-25T09:56:24;38.23;;;12.90;;
77828;SDS011;67019;51.034;3.728;2024-01-25T09:58:40;28.73;;;14.43;;
77828;SDS011;67019;51.034;3.728;2024-01-25T10:01:09;27.52;;;12.40;;
77828;SDS011;67019;51.034;3.728;2024-01-25T10:03:38;34.75;;;11.63;;
77828;SDS011;67019;51.034;3.728;2024-01-25T10:06:07;34.13;;;13.28;;
77828;SDS011;67019;51.034;3.728;2024-01-25T10:08:35;30.80;;;12.75;;
77828;SDS011;67019;51.034;3.728;2024-01-25T10:11:03;31.42;;;13.30;;
77828;SDS011;67019;51.034;3.728;2024-01-25T10:13:31;31.90;;;12.18;;
77828;SDS011;67019;51.034;3.728;2024-01-25T10:16:00;28.23;;;11.57;;
77828;SDS011;67019;51.034;3.728;2024-01-25T10:18:27;32.60;;;10.70;;
77828;SDS011;67019;51.034;3.728;2024-01-25T10:20:55;36.38;;;11.90;;
77828;SDS011;67019;51.034;3.728;2024-01-25T10:23:22;34.18;;;10.58;;
77828;SDS011;67019;51.034;3.728;2024-01-25T10:25:51;30.10;;;9.60;;
77828;SDS011;67019;51.034;3.728;2024-01-25T10:28:19;29.52;;;12.10;;
77828;SDS011;67019;51.034;3.728;2024-01-25T10:30:46;32.20;;;11.00;;
77828;SDS011;67019;51.034;3.728;2024-01-25T10:33:14;26.33;;;9.10;;
77828;SDS011;67019;51.034;3.728;2024-01-25T10:35:44;25.40;;;9.40;;
77828;SDS011;67019;51.034;3.728;2024-01-25T10:38:13;31.42;;;9.45;;
77828;SDS011;67019;51.034;3.728;2024-01-25T10:40:42;21.90;;;9.80;;
77828;SDS011;67019;51.034;3.728;2024-01-25T10:43:13;36.27;;;11.80;;
77828;SDS011;67019;51.034;3.728;2024-01-25T10:45:41;37.75;;;10.75;;
77828;SDS011;67019;51.034;3.728;2024-01-25T10:48:09;29.48;;;10.75;;
77828;SDS011;67019;51.034;3.728;2024-01-25T10:50:37;26.55;;;11.20;;
77828;SDS011;67019;51.034;3.728;2024-01-25T10:53:05;43.45;;;13.45;;
77828;SDS011;67019;51.034;3.728;2024-01-25T10:55:34;41.77;;;12.40;;
77828;SDS011;67019;51.034;3.728;2024-01-25T10:58:06;30.82;;;11.28;;
77828;SDS011;67019;51.034;3.728;2024-01-25T11:03:00;42.98;;;10.98;;
77828;SDS011;67019;51.034;3.728;2024-01-25T11:05:28;44.55;;;13.28;;
77828;SDS011;67019;51.034;3.728;2024-01-25T11:07:56;43.45;;;11.90;;
77828;SDS011;67019;51.034;3.728;2024-01-25T11:10:24;33.38;;;13.95;;
77828;SDS011;67019;51.034;3.728;2024-01-25T11:12:56;45.83;;;13.75;;
77828;SDS011;67019;51.034;3.728;2024-01-25T11:15:32;34.88;;;11.65;;
77828;SDS011;67019;51.034;3.728;2024-01-25T11:18:01;44.45;;;14.25;;
77828;SDS011;67019;51.034;3.728;2024-01-25T11:20:31;42.48;;;14.45;;
77828;SDS011;67019;51.034;3.728;2024-01-25T11:23:03;49.18;;;14.30;;
77828;SDS011;67019;51.034;3.728;2024-01-25T11:25:33;42.73;;;14.33;;
77828;SDS011;67019;51.034;3.728;2024-01-25T11:28:02;47.20;;;14.95;;
77828;SDS011;67019;51.034;3.728;2024-01-25T11:30:32;53.30;;;16.30;;
77828;SDS011;67019;51.034;3.728;2024-01-25T11:33:03;42.53;;;13.70;;
77828;SDS011;67019;51.034;3.728;2024-01-25T11:35:37;39.15;;;14.53;;
77828;SDS011;67019;51.034;3.728;2024-01-25T11:38:04;55.48;;;15.05;;
77828;SDS011;67019;51.034;3.728;2024-01-25T11:40:32;46.05;;;16.93;;
77828;SDS011;67019;51.034;3.728;2024-01-25T11:43:01;44.85;;;13.93;;
77828;SDS011;67019;51.034;3.728;2024-01-25T11:45:32;36.60;;;14.45;;
77828;SDS011;67019;51.034;3.728;2024-01-25T11:48:00;41.98;;;14.33;;
77828;SDS011;67019;51.034;3.728;2024-01-25T11:50:28;32.53;;;11.75;;
77828;SDS011;67019;51.034;3.728;2024-01-25T11:52:55;35.33;;;12.43;;
77828;SDS011;67019;51.034;3.728;2024-01-25T11:55:23;33.33;;;14.25;;
77828;SDS011;67019;51.034;3.728;2024-01-25T11:57:51;32.73;;;13.30;;
77828;SDS011;67019;51.034;3.728;2024-01-25T12:00:19;37.38;;;15.30;;
77828;SDS011;67019;51.034;3.728;2024-01-25T12:02:46;39.85;;;13.35;;
77828;SDS011;67019;51.034;3.728;2024-01-25T12:05:14;34.78;;;13.08;;
77828;SDS011;67019;51.034;3.728;2024-01-25T12:07:42;37.03;;;12.68;;
77828;SDS011;67019;51.034;3.728;2024-01-25T12:10:10;29.15;;;12.78;;
77828;SDS011;67019;51.034;3.728;2024-01-25T12:12:39;34.27;;;13.65;;
77828;SDS011;67019;51.034;3.728;2024-01-25T12:15:07;36.70;;;13.75;;
77828;SDS011;67019;51.034;3.728;2024-01-25T12:17:35;32.90;;;12.58;;
77828;SDS011;67019;51.034;3.728;2024-01-25T12:20:04;28.55;;;10.98;;
77828;SDS011;67019;51.034;3.728;2024-01-25T12:22:36;23.62;;;11.73;;
77828;SDS011;67019;51.034;3.728;2024-01-25T12:25:08;23.00;;;9.98;;
77828;SDS011;67019;51.034;3.728;2024-01-25T12:27:36;28.23;;;10.63;;
77828;SDS011;67019;51.034;3.728;2024-01-25T12:30:06;18.50;;;11.38;;
77828;SDS011;67019;51.034;3.728;2024-01-25T12:32:37;23.12;;;11.03;;
77828;SDS011;67019;51.034;3.728;2024-01-25T12:35:05;39.55;;;15.85;;
77828;SDS011;67019;51.034;3.728;2024-01-25T12:37:33;22.95;;;10.38;;
77828;SDS011;67019;51.034;3.728;2024-01-25T12:40:01;22.22;;;11.63;;
77828;SDS011;67019;51.034;3.728;2024-01-25T12:42:29;15.15;;;8.53;;
77828;SDS011;67019;51.034;3.728;2024-01-25T12:44:56;21.95;;;9.60;;
77828;SDS011;67019;51.034;3.728;2024-01-25T12:47:24;15.25;;;9.93;;
77828;SDS011;67019;51.034;3.728;2024-01-25T12:49:52;18.00;;;8.95;;
77828;SDS011;67019;51.034;3.728;2024-01-25T12:52:19;17.50;;;9.03;;
77828;SDS011;67019;51.034;3.728;2024-01-25T12:54:47;19.32;;;9.25;;
77828;SDS011;67019;51.034;3.728;2024-01-25T12:57:14;21.33;;;9.15;;
77828;SDS011;67019;51.034;3.728;2024-01-25T12:59:42;15.38;;;8.65;;
77828;SDS011;67019;51.034;3.728;2024-01-25T13:02:10;19.12;;;9.20;;
77828;SDS011;67019;51.034;3.728;2024-01-25T13:04:39;14.68;;;9.53;;
77828;SDS011;67019;51.034;3.728;2024-01-25T13:07:07;19.67;;;8.20;;
77828;SDS011;67019;51.034;3.728;2024-01-25T13:09:34;14.60;;;8.68;;
77828;SDS011;67019;51.034;3.728;2024-01-25T13:12:03;17.23;;;8.88;;
77828;SDS011;67019;51.034;3.728;2024-01-25T13:14:30;18.45;;;8.80;;
77828;SDS011;67019;51.034;3.728;2024-01-25T13:16:59;12.33;;;7.92;;
77828;SDS011;67019;51.034;3.728;2024-01-25T13:19:26;19.87;;;8.68;;
77828;SDS011;67019;51.034;3.728;2024-01-25T13:21:54;17.10;;;9.35;;
77828;SDS011;67019;51.034;3.728;2024-01-25T13:24:22;16.35;;;8.73;;
77828;SDS011;67019;51.034;3.728;2024-01-25T13:26:49;16.02;;;8.90;;
77828;SDS011;67019;51.034;3.728;2024-01-25T13:29:17;16.07;;;8.78;;
77828;SDS011;67019;51.034;3.728;2024-01-25T13:31:44;16.00;;;9.50;;
77828;SDS011;67019;51.034;3.728;2024-01-25T13:34:12;16.82;;;8.50;;
77828;SDS011;67019;51.034;3.728;2024-01-25T13:36:39;13.45;;;9.23;;
77828;SDS011;67019;51.034;3.728;2024-01-25T13:39:07;16.25;;;9.65;;
77828;SDS011;67019;51.034;3.728;2024-01-25T13:41:35;17.07;;;8.75;;
77828;SDS011;67019;51.034;3.728;2024-01-25T13:44:03;15.78;;;9.18;;
77828;SDS011;67019;51.034;3.728;2024-01-25T13:46:31;15.13;;;9.23;;
77828;SDS011;67019;51.034;3.728;2024-01-25T13:48:58;18.65;;;9.80;;
77828;SDS011;67019;51.034;3.728;2024-01-25T13:51:26;17.60;;;8.93;;
77828;SDS011;67019;51.034;3.728;2024-01-25T13:53:53;19.48;;;10.40;;
77828;SDS011;67019;51.034;3.728;2024-01-25T13:56:21;21.40;;;10.53;;
77828;SDS011;67019;51.034;3.728;2024-01-25T13:58:48;20.37;;;10.65;;
77828;SDS011;67019;51.034;3.728;2024-01-25T14:01:16;22.73;;;11.25;;
77828;SDS011;67019;51.034;3.728;2024-01-25T14:03:44;20.68;;;12.05;;
77828;SDS011;67019;51.034;3.728;2024-01-25T14:06:11;23.27;;;11.68;;
77828;SDS011;67019;51.034;3.728;2024-01-25T14:08:39;20.37;;;11.28;;
77828;SDS011;67019;51.034;3.728;2024-01-25T14:11:06;21.68;;;12.37;;
77828;SDS011;67019;51.034;3.728;2024-01-25T14:13:34;23.42;;;13.55;;
77828;SDS011;67019;51.034;3.728;2024-01-25T14:16:01;21.70;;;12.40;;
77828;SDS011;67019;51.034;3.728;2024-01-25T14:18:35;24.45;;;14.28;;
77828;SDS011;67019;51.034;3.728;2024-01-25T14:21:00;19.73;;;11.43;;
77828;SDS011;67019;51.034;3.728;2024-01-25T14:23:29;21.05;;;13.60;;
77828;SDS011;67019;51.034;3.728;2024-01-25T14:25:57;25.85;;;14.18;;
77828;SDS011;67019;51.034;3.728;2024-01-25T14:28:24;24.40;;;13.72;;
77828;SDS011;67019;51.034;3.728;2024-01-25T14:30:53;28.40;;;13.45;;
77828;SDS011;67019;51.034;3.728;2024-01-25T14:33:21;23.07;;;12.90;;